Skip Navigation Links
NOAA logo - Click to go to the NOAA homepage
NOAA's National Weather Service
Alaska Aviation Weather Unit
  NWS logo - Click to go to the NWS homepage
Left Navbar Graphic     08 AKDT = 16 GMT

   
NOAA is celebrating 200 years of science, service, and stewardship. Visit the NOAA 200th celebration Web site to learn more.
USA.gov is the U.S. Government's official Web portal to all Federal, state and local government Web resources and services.
Facebook
NWS on Facebook

Important Change Regarding the AAWU Web Presence

 

Over the last several months, the AAWU has been working to navigate its webpages to a nationally supported server. Security, as well as other needs, have necessitated the change.  In the process, we have made an effort to enhance the functionality of our website, as well as some of our products. As of June 20, 2017, aawu.arh.noaa.gov will be discontinued. The new AAWU web address is weather.gov/aawu. It is now live and will run in-parallel with the old site until it is discontinued. Please send any feedback or questions regarding the new webpages to nws.ar.aawu.webauthors@noaa.gov.  Thank you for your patience during this time of transition.
AAWU Home :: Display TAF Add Bookmark
TAF PAHO 231311Z 2313/2412 25011KT P6SM SCT020 BKN035
      TEMPO 2313/2317 BKN020
     FM232100 24015G22KT P6SM SCT060 BKN120
     FM240300 17008KT P6SM VCSH SCT040 OVC050
     FM240800 19006KT P6SM -RA OVC015=

PAHO 231023Z AUTO 21008KT 10SM SCT027 OVC037 09/02 A3004= METAR PAHO 231053Z AUTO 22009KT 10SM FEW039 BKN048 08/02 A3003 RMK SLP170 T00830022 TSNO VIA AUTODIAL= SPECI PAHO 231142Z AUTO 22009KT 10SM BKN020 OVC033 08/03 A3004 RMK T00830028 TSNO VIA AUTODIAL= METAR PAHO 231153Z AUTO 23009KT 10SM BKN019 BKN025 OVC033 08/03 A3004 RMK SLP173 T00830028 10100 20083 53005 TSNO VIA AUTODIAL= PAHO 231231Z AUTO 25008KT 10SM SCT023 BKN048 08/02 A3005= PAHO 231253Z AUTO 25011KT 10SM FEW022 FEW035 08/02 A3005 RMK SLP177 T00780017 TSNO VIA AUTODIAL= PAHO 231353Z 24011KT 10SM SCT039 BKN055 08/01 A3006 RMK SLP178 T00780011 VIA AUTODIAL= PAHO 231453Z 24011KT 10SM FEW046 SCT065 08/01 A3006 RMK SLP181 T00780011 51008 VIA AUTODIAL= PAHO 231553Z 23015KT 10SM BKN055 08/01 A3007 RMK SLP183 T00780011 VIA AUTODIAL=
 Alaska TAF Map

NOAA's National Weather Service
Alaska Aviation Weather Unit
6930 Sand Lake Road
Anchorage, AK 99502-1845
Disclaimer
Credits
Glossary
Privacy Policy
About Us
Career Opportunities
Contact AAWU Internet Services Site last modified: April, 17th 2012